createdAt,value
2023-04-21T00:05:01.020Z,6.9
2023-04-21T00:10:53.901Z,6.8
2023-04-21T00:16:44.897Z,6.7
2023-04-21T00:22:36.370Z,6.6
2023-04-21T00:28:28.017Z,6.4
2023-04-21T00:34:04.265Z,6.4
2023-04-21T00:39:56.047Z,6.3
2023-04-21T00:45:32.596Z,6.2
2023-04-21T00:51:09.166Z,6.1
2023-04-21T00:56:45.164Z,5.9
2023-04-21T01:02:23.040Z,5.8
2023-04-21T01:08:16.242Z,5.7
2023-04-21T01:13:52.089Z,5.6
2023-04-21T01:19:44.311Z,5.5
2023-04-21T01:25:35.541Z,5.4
2023-04-21T01:31:26.542Z,5.3
2023-04-21T01:37:18.922Z,5.2
2023-04-21T01:42:39.114Z,5.1
2023-04-21T01:48:00.230Z,5
2023-04-21T01:53:52.596Z,4.9
2023-04-21T01:59:12.857Z,4.8
2023-04-21T02:05:06.535Z,4.7
2023-04-21T02:10:58.086Z,4.5
2023-04-21T02:17:06.585Z,4.4
2023-04-21T02:22:58.365Z,4.4
2023-04-21T02:28:34.715Z,4.3
2023-04-21T02:34:32.503Z,4.1
2023-04-21T02:40:24.229Z,4.1
2023-04-21T02:46:15.971Z,4
2023-04-21T02:52:08.597Z,3.9
2023-04-21T02:57:59.893Z,3.9
2023-04-21T03:03:53.114Z,3.9
2023-04-21T03:09:44.648Z,4
2023-04-21T03:15:36.393Z,4
2023-04-21T03:21:29.004Z,4
2023-04-21T03:27:20.824Z,4.1
2023-04-21T03:32:58.268Z,4.1
2023-04-21T03:38:50.684Z,4.2
2023-04-21T03:44:53.807Z,4.3
2023-04-21T03:50:47.969Z,4.3
2023-04-21T03:56:39.724Z,4.4
2023-04-21T04:02:30.523Z,4.6
2023-04-21T04:08:25.692Z,4.7
2023-04-21T04:13:46.747Z,4.8
2023-04-21T04:19:38.908Z,4.9
2023-04-21T04:25:30.005Z,5.1
2023-04-21T04:31:06.789Z,5.3
2023-04-21T04:37:00.970Z,5.5
2023-04-21T04:42:51.977Z,5.8
2023-04-21T04:48:46.621Z,6
2023-04-21T04:54:39.991Z,6.3
2023-04-21T05:00:30.736Z,6.7
2023-04-21T05:06:10.034Z,7
2023-04-21T05:12:00.538Z,7.4
2023-04-21T05:17:53.117Z,7.8
2023-04-21T05:23:47.563Z,8.3
2023-04-21T05:29:42.013Z,9
2023-04-21T05:35:35.543Z,10.1
2023-04-21T05:41:29.352Z,11.9
2023-04-21T05:47:21.429Z,14.3
2023-04-21T05:52:12.563Z,16.2
2023-04-21T05:58:04.409Z,18.6
2023-04-21T06:09:20.589Z,23.8
2023-04-21T06:15:12.365Z,26.9
2023-04-21T06:21:04.053Z,19.9
2023-04-21T06:26:40.054Z,43.3
2023-04-21T06:32:20.185Z,41.1
2023-04-21T06:37:56.311Z,40.1
2023-04-21T06:43:48.295Z,39.5
2023-04-21T06:49:24.992Z,53.3
2023-04-21T06:55:00.436Z,54.3
2023-04-21T07:00:54.902Z,55.3
2023-04-21T07:06:48.711Z,55.8
2023-04-21T07:12:40.621Z,56.5
2023-04-21T07:18:31.743Z,57.2
2023-04-21T07:24:24.358Z,57.7
2023-04-21T07:29:59.873Z,58.4
2023-04-21T07:35:50.880Z,58.9
2023-04-21T07:41:43.574Z,59.1
2023-04-21T07:47:34.350Z,59.5
2023-04-21T07:53:25.569Z,59.5
2023-04-21T07:59:17.658Z,59.6
2023-04-21T08:04:56.139Z,58.1
2023-04-21T08:10:54.203Z,57.3
2023-04-21T08:16:30.890Z,56.5
2023-04-21T08:22:09.524Z,56.2
2023-04-21T08:27:47.556Z,57.1
2023-04-21T08:33:46.946Z,57.3
2023-04-21T08:40:10.975Z,56.6
2023-04-21T08:46:05.598Z,57.1
2023-04-21T08:52:00.653Z,57.7
2023-04-21T08:58:22.412Z,58.9
2023-04-21T09:04:03.507Z,60.1
2023-04-21T09:09:28.091Z,60.9
2023-04-21T09:15:21.880Z,61.6
2023-04-21T09:20:58.728Z,62.3
2023-04-21T09:26:53.073Z,62.4
2023-04-21T09:32:47.516Z,60.8
2023-04-21T09:39:17.745Z,61.6
2023-04-21T09:45:56.816Z,51.1
2023-04-21T09:52:33.937Z,45.8
2023-04-21T09:58:24.484Z,43.3
2023-04-21T10:04:18.861Z,43.6
2023-04-21T10:10:12.080Z,45.2
2023-04-21T10:16:05.665Z,46.4
2023-04-21T10:21:58.153Z,46.4
2023-04-21T10:27:49.988Z,46.4
2023-04-21T10:33:54.158Z,47.5
2023-04-21T10:39:45.992Z,50.3
2023-04-21T10:45:42.263Z,51.1
2023-04-21T10:51:34.281Z,52.8
2023-04-21T10:57:26.453Z,52
2023-04-21T11:03:20.921Z,52.6
2023-04-21T11:09:16.231Z,52.3
2023-04-21T11:15:07.856Z,53.3
2023-04-21T11:20:59.694Z,55
2023-04-21T11:26:50.582Z,56.5
2023-04-21T11:32:27.186Z,57.9
2023-04-21T11:38:18.892Z,59.2
2023-04-21T11:44:10.358Z,60.4
2023-04-21T11:50:03.393Z,60.7
2023-04-21T11:55:39.138Z,62.1
2023-04-21T12:01:31.577Z,62.5
2023-04-21T12:07:11.251Z,63.4
2023-04-21T12:13:02.343Z,63.9
2023-04-21T12:18:55.937Z,64.1
2023-04-21T12:24:48.146Z,64.4
2023-04-21T12:30:41.620Z,64.8
2023-04-21T12:36:36.350Z,63.7
2023-04-21T12:42:27.869Z,63.2
2023-04-21T12:48:21.973Z,62.4
2023-04-21T12:53:58.432Z,61.7
2023-04-21T13:00:02.559Z,61
2023-04-21T13:05:56.423Z,60.3
2023-04-21T13:11:33.343Z,59.7
2023-04-21T13:17:25.205Z,59.1
2023-04-21T13:23:18.325Z,58.4
2023-04-21T13:29:09.853Z,57.8
2023-04-21T13:35:04.725Z,57.1
2023-04-21T13:40:43.712Z,56.3
2023-04-21T13:46:37.452Z,55.7
2023-04-21T13:52:30.642Z,54.8
2023-04-21T13:58:23.917Z,52.7
2023-04-21T14:03:47.252Z,50.8
2023-04-21T14:09:43.641Z,49.8
2023-04-21T14:16:05.902Z,48.3
2023-04-21T14:21:58.015Z,47.6
2023-04-21T14:27:50.132Z,47.6
2023-04-21T14:33:27.602Z,46.1
2023-04-21T14:39:06.022Z,48.1
2023-04-21T14:44:44.453Z,44.9
2023-04-21T14:50:34.064Z,42.9
2023-04-21T14:56:25.258Z,40.9
2023-04-21T15:02:20.395Z,39.7
2023-04-21T15:08:02.258Z,38.9
2023-04-21T15:13:38.673Z,38.5
2023-04-21T15:19:15.618Z,38.3
2023-04-21T15:25:16.891Z,38.1
2023-04-21T15:30:52.621Z,37.7
2023-04-21T15:36:29.501Z,37.1
2023-04-21T15:42:16.583Z,36.5
2023-04-21T15:47:55.708Z,35.8
2023-04-21T15:53:48.344Z,35.1
2023-04-21T15:59:42.508Z,34
2023-04-21T16:05:36.861Z,32.9
2023-04-21T16:11:15.174Z,31.9
2023-04-21T16:17:42.959Z,30.7
2023-04-21T16:23:34.729Z,29.5
2023-04-21T16:29:28.083Z,28.4
2023-04-21T16:35:21.308Z,27.3
2023-04-21T16:41:14.929Z,26.2
2023-04-21T16:47:07.881Z,25.1
2023-04-21T16:53:00.749Z,24.1
2023-04-21T16:58:51.553Z,23
2023-04-21T17:04:45.019Z,22.1
2023-04-21T17:10:37.402Z,21.1
2023-04-21T17:16:28.394Z,20.1
2023-04-21T17:22:22.156Z,19.2
2023-04-21T17:28:31.288Z,18.4
2023-04-21T17:34:51.878Z,17.5
2023-04-21T17:40:57.591Z,16.8
2023-04-21T17:46:49.412Z,16.1
2023-04-21T17:52:25.307Z,15.5
2023-04-21T17:58:17.728Z,14.9
2023-04-21T18:03:55.218Z,14.4
2023-04-21T18:09:31.969Z,13.9
2023-04-21T18:15:09.599Z,13.5
2023-04-21T18:20:46.580Z,13.1
2023-04-21T18:26:37.608Z,12.8
2023-04-21T18:31:58.720Z,12.5
2023-04-21T18:37:33.874Z,12.2
2023-04-21T18:42:39.436Z,11.9
2023-04-21T18:48:17.175Z,11.8
2023-04-21T18:53:53.367Z,11.6
2023-04-21T18:59:29.291Z,11.4
2023-04-21T19:05:07.809Z,11.2
2023-04-21T19:11:15.055Z,11
2023-04-21T19:17:19.923Z,10.8
2023-04-21T19:23:12.124Z,10.6
2023-04-21T19:29:03.213Z,10.4
2023-04-21T19:34:56.059Z,10.3
2023-04-21T19:40:47.480Z,10.1
2023-04-21T19:46:39.479Z,9.9
2023-04-21T19:52:31.080Z,9.9
2023-04-21T19:58:55.837Z,9.8
2023-04-21T20:04:50.778Z,9.6
2023-04-21T20:10:41.105Z,9.5
2023-04-21T20:16:33.464Z,9.3
2023-04-21T20:22:25.431Z,9.3
2023-04-21T20:28:02.971Z,9.1
2023-04-21T20:33:55.248Z,9
2023-04-21T20:39:31.092Z,8.9
2023-04-21T20:45:20.269Z,8.8
2023-04-21T20:51:13.098Z,8.6
2023-04-21T20:57:04.086Z,8.4
2023-04-21T21:02:58.350Z,8.3
2023-04-21T21:08:51.792Z,8.1
2023-04-21T21:14:46.148Z,7.9
2023-04-21T21:20:22.025Z,7.8
2023-04-21T21:26:13.449Z,7.6
2023-04-21T21:32:04.687Z,7.5
2023-04-21T21:37:56.774Z,7.4
2023-04-21T21:43:48.615Z,7.2
2023-04-21T21:49:45.030Z,7.1
2023-04-21T21:55:21.251Z,7
2023-04-21T22:01:16.481Z,6.9
2023-04-21T22:07:11.796Z,6.8
2023-04-21T22:13:03.705Z,6.7
2023-04-21T22:19:07.731Z,6.6
2023-04-21T22:24:58.620Z,6.5
2023-04-21T22:30:34.865Z,6.4
2023-04-21T22:36:26.804Z,6.3
2023-04-21T22:42:17.303Z,6.2
2023-04-21T22:48:09.143Z,6.1
2023-04-21T22:54:01.540Z,5.9
2023-04-21T22:59:53.887Z,5.9
2023-04-21T23:05:47.001Z,5.8
2023-04-21T23:11:23.898Z,5.8
2023-04-21T23:17:15.900Z,5.7
2023-04-21T23:23:07.652Z,5.7
2023-04-21T23:28:59.560Z,5.6
2023-04-21T23:34:51.577Z,5.6
2023-04-21T23:40:42.982Z,5.6
2023-04-21T23:46:35.366Z,5.5
2023-04-21T23:52:12.631Z,5.4
2023-04-21T23:58:05.043Z,5.3
